createdAt,value
2019-05-22T00:01:01.710Z,98598.50
2019-05-22T00:03:09.702Z,98594.29
2019-05-22T00:05:32.411Z,98592.64
2019-05-22T00:07:42.540Z,98590.22
2019-05-22T00:09:52.788Z,98579.69
2019-05-22T00:12:01.113Z,98571.11
2019-05-22T00:14:10.976Z,98559.77
2019-05-22T00:16:21.543Z,98540.95
2019-05-22T00:18:31.194Z,98545.40
2019-05-22T00:20:42.226Z,98546.73
2019-05-22T00:22:49.284Z,98547.78
2019-05-22T00:24:59.341Z,98550.50
2019-05-22T00:27:09.853Z,98544.25
2019-05-22T00:29:17.609Z,98533.41
2019-05-22T00:31:26.791Z,98529.76
2019-05-22T00:33:36.795Z,98534.11
2019-05-22T00:35:45.478Z,98533.00
2019-05-22T00:37:54.329Z,98535.65
2019-05-22T00:40:04.481Z,98530.58
2019-05-22T00:42:13.647Z,98525.25
2019-05-22T00:44:21.703Z,98518.09
2019-05-22T00:46:30.574Z,98525.05
2019-05-22T00:48:39.089Z,98525.67
2019-05-22T00:50:54.969Z,98536.83
2019-05-22T00:53:23.863Z,98535.23
2019-05-22T00:56:01.362Z,98544.72
2019-05-22T00:58:16.323Z,98543.41
2019-05-22T01:00:34.848Z,98548.50
2019-05-22T01:02:43.139Z,98542.64
2019-05-22T01:04:51.329Z,98520.86
2019-05-22T01:06:59.064Z,98529.23
2019-05-22T01:09:09.267Z,98535.41
2019-05-22T01:11:16.798Z,98541.95
2019-05-22T01:13:23.996Z,98532.64
2019-05-22T01:15:32.254Z,98531.81
2019-05-22T01:17:42.065Z,98533.23
2019-05-22T01:19:52.585Z,98538.11
2019-05-22T01:22:02.152Z,98516.59
2019-05-22T01:24:10.891Z,98500.96
2019-05-22T01:26:21.597Z,98498.05
2019-05-22T01:28:33.590Z,98499.34
2019-05-22T01:31:08.661Z,98486.23
2019-05-22T01:33:23.500Z,98492.83
2019-05-22T01:35:36.942Z,98485.38
2019-05-22T01:37:45.895Z,98485.69
2019-05-22T01:40:10.677Z,98484.73
2019-05-22T01:42:28.802Z,98481.58
2019-05-22T01:44:36.804Z,98475.71
2019-05-22T01:46:46.511Z,98481.23
2019-05-22T01:48:57.351Z,98489.45
2019-05-22T01:51:06.752Z,98494.30
2019-05-22T01:53:16.112Z,98481.63
2019-05-22T01:55:24.110Z,98473.91
2019-05-22T01:57:31.838Z,98450.52
2019-05-22T01:59:39.787Z,98434.81
2019-05-22T02:01:48.518Z,98423.28
2019-05-22T02:03:57.686Z,98435.75
2019-05-22T02:06:06.644Z,98447.09
2019-05-22T02:08:14.944Z,98443.25
2019-05-22T02:10:28.231Z,98446.64
2019-05-22T02:12:53.306Z,98447.47
2019-05-22T02:15:01.991Z,98443.17
2019-05-22T02:17:12.635Z,98451.30
2019-05-22T02:19:21.177Z,98444.80
2019-05-22T02:21:30.251Z,98434.15
2019-05-22T02:23:38.619Z,98419.81
2019-05-22T02:25:46.364Z,98408.93
2019-05-22T02:27:54.660Z,98405.98
2019-05-22T02:30:02.355Z,98412.64
2019-05-22T02:32:12.986Z,98423.45
2019-05-22T02:34:20.423Z,98415.46
2019-05-22T02:36:28.091Z,98400.34
2019-05-22T02:38:36.188Z,98396.52
2019-05-22T02:40:45.482Z,98382.70
2019-05-22T02:42:53.844Z,98387.11
2019-05-22T02:45:02.661Z,98392.58
2019-05-22T02:47:19.700Z,98381.70
2019-05-22T02:49:23.548Z,98383.05
2019-05-22T02:51:31.527Z,98370.11
2019-05-22T02:53:38.907Z,98362.08
2019-05-22T02:55:47.276Z,98352.52
2019-05-22T02:57:55.622Z,98359.87
2019-05-22T03:00:04.222Z,98374.41
2019-05-22T03:02:12.841Z,98351.70
2019-05-22T03:04:20.620Z,98344.98
2019-05-22T03:06:28.467Z,98327.92
2019-05-22T03:09:14.342Z,98317.05
2019-05-22T03:11:22.835Z,98306.98
2019-05-22T03:14:00.210Z,98311.19
2019-05-22T03:16:10.212Z,98309.16
2019-05-22T03:18:20.405Z,98322.11
2019-05-22T03:20:29.360Z,98317.14
2019-05-22T03:22:42.703Z,98333.66
2019-05-22T03:24:52.090Z,98321.28
2019-05-22T03:26:59.780Z,98317.58
2019-05-22T03:29:07.253Z,98317.87
2019-05-22T03:31:17.623Z,98324.34
2019-05-22T03:33:26.257Z,98339.28
2019-05-22T03:35:39.205Z,98313.28
2019-05-22T03:37:48.165Z,98316.58
2019-05-22T03:39:56.647Z,98310.34
2019-05-22T03:42:04.789Z,98316.28
2019-05-22T03:44:12.218Z,98322.52
2019-05-22T03:46:49.026Z,98325.70
2019-05-22T03:48:58.119Z,98324.11
2019-05-22T03:51:15.491Z,98331.48
2019-05-22T03:53:25.375Z,98289.34
2019-05-22T03:55:33.226Z,98249.30
2019-05-22T03:57:41.821Z,98210.28
2019-05-22T03:59:49.799Z,98219.30
2019-05-22T04:01:59.525Z,98195.38
2019-05-22T04:04:10.363Z,98223.58
2019-05-22T04:06:18.089Z,98241.30
2019-05-22T04:08:27.044Z,98254.56
2019-05-22T04:10:41.640Z,98229.52
2019-05-22T04:12:50.749Z,98259.97
2019-05-22T04:14:58.615Z,98224.34
2019-05-22T04:17:09.382Z,98224.87
2019-05-22T04:19:17.552Z,98248.86
2019-05-22T04:21:26.229Z,98279.05
2019-05-22T04:23:33.440Z,98284.02
2019-05-22T04:25:40.855Z,98281.69
2019-05-22T04:27:49.111Z,98276.05
2019-05-22T04:29:57.679Z,98259.38
2019-05-22T04:32:23.590Z,98288.90
2019-05-22T04:34:32.370Z,98286.31
2019-05-22T04:36:40.520Z,98256.27
2019-05-22T04:38:48.034Z,98256.33
2019-05-22T04:40:57.290Z,98253.27
2019-05-22T04:43:05.235Z,98254.92
2019-05-22T04:45:15.863Z,98263.86
2019-05-22T04:47:24.991Z,98285.20
2019-05-22T04:49:33.068Z,98351.31
2019-05-22T04:51:40.851Z,98381.89
2019-05-22T04:53:48.030Z,98360.02
2019-05-22T04:55:55.787Z,98344.69
2019-05-22T04:58:05.074Z,98331.23
2019-05-22T05:00:12.830Z,98315.53
2019-05-22T05:02:21.585Z,98303.89
2019-05-22T05:06:43.102Z,98460.23
2019-05-22T05:08:51.823Z,98476.32
2019-05-22T05:11:03.661Z,98459.04
2019-05-22T05:13:11.345Z,98459.79
2019-05-22T05:15:19.916Z,98524.00
2019-05-22T05:17:27.743Z,98580.04
2019-05-22T05:19:35.009Z,98517.31
2019-05-22T05:21:42.658Z,98487.80
2019-05-22T05:23:50.563Z,98477.44
2019-05-22T05:25:57.818Z,98480.38
2019-05-22T05:28:07.615Z,98501.48
2019-05-22T05:30:16.270Z,98467.38
2019-05-22T05:32:23.279Z,98495.70
2019-05-22T05:34:40.433Z,98500.41
2019-05-22T05:36:48.157Z,98523.84
2019-05-22T05:38:56.823Z,98521.49
2019-05-22T05:41:04.157Z,98535.53
2019-05-22T05:43:19.568Z,98544.33
2019-05-22T05:45:27.776Z,98527.63
2019-05-22T05:47:35.304Z,98529.98
2019-05-22T05:49:43.254Z,98493.63
2019-05-22T05:51:52.187Z,98469.08
2019-05-22T05:54:09.883Z,98516.98
2019-05-22T05:56:18.612Z,98530.83
2019-05-22T05:58:31.359Z,98506.64
2019-05-22T06:00:44.565Z,98534.13
2019-05-22T06:02:56.454Z,98526.78
2019-05-22T06:05:00.443Z,98506.63
2019-05-22T06:07:28.443Z,98523.67
2019-05-22T06:09:36.404Z,98504.65
2019-05-22T06:11:51.044Z,98507.73
2019-05-22T06:13:58.256Z,98494.46
2019-05-22T06:16:50.713Z,98511.34
2019-05-22T06:18:59.341Z,98519.51
2019-05-22T06:21:09.167Z,98507.23
2019-05-22T06:23:56.978Z,98500.80
2019-05-22T06:26:05.321Z,98491.10
2019-05-22T06:28:16.411Z,98475.73
2019-05-22T06:30:44.830Z,98473.62
2019-05-22T06:33:31.641Z,98435.82
2019-05-22T06:35:39.247Z,98386.78
2019-05-22T06:37:57.652Z,98368.98
2019-05-22T06:40:06.514Z,98370.27
2019-05-22T06:42:13.720Z,98359.59
2019-05-22T06:44:41.320Z,98349.53
2019-05-22T06:46:49.305Z,98352.17
2019-05-22T06:48:58.112Z,98349.38
2019-05-22T06:51:18.547Z,98358.10
2019-05-22T06:53:15.089Z,98349.30
2019-05-22T06:55:22.404Z,98356.59
2019-05-22T06:57:34.740Z,98349.01
2019-05-22T06:59:44.197Z,98331.61
2019-05-22T07:02:00.791Z,98321.61
2019-05-22T07:04:00.884Z,98295.01
2019-05-22T07:06:08.901Z,98271.30
2019-05-22T07:08:18.171Z,98258.52
2019-05-22T07:10:26.565Z,98271.44
2019-05-22T07:12:35.356Z,98284.07
2019-05-22T07:14:52.059Z,98300.18
2019-05-22T07:16:59.553Z,98309.05
2019-05-22T07:19:10.836Z,98291.95
2019-05-22T07:21:18.426Z,98295.12
2019-05-22T07:23:35.541Z,98282.30
2019-05-22T07:25:45.459Z,98244.34
2019-05-22T07:27:52.913Z,98223.78
2019-05-22T07:30:00.179Z,98199.16
2019-05-22T07:32:08.600Z,98197.20
2019-05-22T07:34:16.163Z,98182.95
2019-05-22T07:36:25.448Z,98157.05
2019-05-22T07:38:32.927Z,98139.72
2019-05-22T07:40:40.196Z,98129.14
2019-05-22T07:42:47.618Z,98136.63
2019-05-22T07:44:56.568Z,98099.86
2019-05-22T07:47:06.233Z,98081.19
2019-05-22T07:49:13.588Z,98087.12
2019-05-22T07:51:21.643Z,98076.02
2019-05-22T07:53:30.260Z,98099.12
2019-05-22T07:55:37.741Z,98148.08
2019-05-22T07:57:48.281Z,98129.47
2019-05-22T07:59:55.942Z,98075.05
2019-05-22T08:02:04.838Z,98059.60
2019-05-22T08:04:13.684Z,98080.63
2019-05-22T08:06:22.365Z,98107.34
2019-05-22T08:08:32.233Z,98123.93
2019-05-22T08:10:40.067Z,98009.86
2019-05-22T08:12:47.965Z,97997.77
2019-05-22T08:14:56.232Z,97979.27
2019-05-22T08:17:05.359Z,97952.13
2019-05-22T08:19:12.836Z,97942.58
2019-05-22T08:21:23.425Z,97953.28
2019-05-22T08:23:31.019Z,97986.45
2019-05-22T08:25:39.229Z,97952.00
2019-05-22T08:27:48.715Z,97970.95
2019-05-22T08:29:57.512Z,97914.02
2019-05-22T08:32:06.367Z,97913.48
2019-05-22T08:34:14.952Z,97896.31
2019-05-22T08:36:22.404Z,97884.27
2019-05-22T08:38:33.205Z,97893.64
2019-05-22T08:40:41.587Z,98171.16
2019-05-22T08:42:50.173Z,98225.99
2019-05-22T08:44:58.850Z,98204.89
2019-05-22T08:47:07.999Z,98181.91
2019-05-22T08:49:16.331Z,98196.95
2019-05-22T08:51:24.079Z,98240.94
2019-05-22T08:53:45.943Z,98238.70
2019-05-22T08:55:42.416Z,98221.08
2019-05-22T08:57:50.195Z,98201.24
2019-05-22T08:59:57.336Z,98167.62
2019-05-22T09:02:07.129Z,98151.36
2019-05-22T09:04:14.843Z,98143.59
2019-05-22T09:06:22.117Z,98090.61
2019-05-22T09:08:29.971Z,98100.59
2019-05-22T09:10:37.810Z,98109.91
2019-05-22T09:12:45.675Z,98138.37
2019-05-22T09:14:53.719Z,98149.83
2019-05-22T09:17:01.528Z,98094.28
2019-05-22T09:19:09.397Z,98126.27
2019-05-22T09:21:17.096Z,98121.45
2019-05-22T09:23:24.838Z,98117.34
2019-05-22T09:25:33.355Z,98131.32
2019-05-22T09:27:41.294Z,98138.66
2019-05-22T09:29:48.536Z,98132.98
2019-05-22T09:31:56.029Z,98133.13
2019-05-22T09:34:03.373Z,98132.02
2019-05-22T09:36:11.730Z,98135.92
2019-05-22T09:38:19.519Z,98140.70
2019-05-22T09:40:26.777Z,98143.64
2019-05-22T09:42:34.929Z,98156.33
2019-05-22T09:44:42.902Z,98165.48
2019-05-22T09:46:49.873Z,98174.12
2019-05-22T09:48:57.296Z,98181.05
2019-05-22T09:51:04.849Z,98198.27
2019-05-22T09:53:12.312Z,98198.27
2019-05-22T09:55:20.448Z,98179.89
2019-05-22T09:57:28.352Z,98167.15
2019-05-22T09:59:35.816Z,98166.38
2019-05-22T10:01:43.185Z,98175.84
2019-05-22T10:03:50.555Z,98161.16
2019-05-22T10:05:57.870Z,98160.56
2019-05-22T10:08:06.118Z,98156.52
2019-05-22T10:10:13.884Z,98164.91
2019-05-22T10:12:21.683Z,98174.83
2019-05-22T10:14:29.053Z,98166.72
2019-05-22T10:16:36.308Z,98168.50
2019-05-22T10:18:43.939Z,98159.27
2019-05-22T10:20:50.970Z,98156.13
2019-05-22T10:23:14.031Z,98166.76
2019-05-22T10:25:16.388Z,98165.28
2019-05-22T10:27:21.691Z,98148.09
2019-05-22T10:29:32.208Z,98145.34
2019-05-22T10:31:38.639Z,98151.23
2019-05-22T10:33:45.753Z,98155.25
2019-05-22T10:35:53.526Z,98151.19
2019-05-22T10:38:01.296Z,98141.69
2019-05-22T10:40:09.103Z,98146.23
2019-05-22T10:42:16.799Z,98161.42
2019-05-22T10:44:23.950Z,98162.25
2019-05-22T10:46:31.212Z,98163.99
2019-05-22T10:48:40.367Z,98156.22
2019-05-22T10:50:47.963Z,98149.83
2019-05-22T10:52:55.621Z,98147.45
2019-05-22T10:55:04.947Z,98157.07
2019-05-22T10:57:12.993Z,98147.79
2019-05-22T10:59:20.359Z,98147.11
2019-05-22T11:01:28.105Z,98151.06
2019-05-22T11:03:35.747Z,98146.95
2019-05-22T11:05:43.038Z,98155.73
2019-05-22T11:07:51.389Z,98155.97
2019-05-22T11:09:58.885Z,98161.02
2019-05-22T11:12:07.119Z,98163.20
2019-05-22T11:14:15.374Z,98168.60
2019-05-22T11:16:22.863Z,98160.64
2019-05-22T11:18:30.778Z,98171.09
2019-05-22T11:20:38.125Z,98173.85
2019-05-22T11:22:47.036Z,98172.20
2019-05-22T11:24:54.406Z,98168.68
2019-05-22T11:27:01.633Z,98170.04
2019-05-22T11:29:09.029Z,98164.64
2019-05-22T11:31:16.677Z,98167.86
2019-05-22T11:33:24.184Z,98164.10
2019-05-22T11:35:33.726Z,98168.16
2019-05-22T11:37:41.165Z,98172.22
2019-05-22T11:39:48.543Z,98093.27
2019-05-22T11:41:56.174Z,98169.70
2019-05-22T11:44:03.201Z,98171.86
2019-05-22T11:46:10.830Z,98165.45
2019-05-22T11:48:20.452Z,98168.33
2019-05-22T11:50:28.387Z,98185.95
2019-05-22T11:52:36.329Z,98192.26
2019-05-22T11:54:43.862Z,98198.88
2019-05-22T11:56:51.039Z,98220.59
2019-05-22T11:58:58.150Z,98217.45
2019-05-22T12:01:07.245Z,98217.25
2019-05-22T12:03:15.023Z,98228.20
2019-05-22T12:05:23.517Z,98231.78
2019-05-22T12:07:31.041Z,98226.94
2019-05-22T12:09:38.727Z,98239.53
2019-05-22T12:11:46.485Z,98248.44
2019-05-22T12:13:55.765Z,98257.63
2019-05-22T12:16:05.245Z,98260.25
2019-05-22T12:18:13.788Z,98269.18
2019-05-22T12:20:22.205Z,98269.28
2019-05-22T12:22:29.516Z,98267.03
2019-05-22T12:24:37.783Z,98267.56
2019-05-22T12:26:45.095Z,98218.63
2019-05-22T12:28:52.346Z,98273.32
2019-05-22T12:31:00.708Z,98271.89
2019-05-22T12:33:13.957Z,98275.41
2019-05-22T12:35:19.256Z,98275.64
2019-05-22T12:37:27.540Z,98268.13
2019-05-22T12:39:35.865Z,98270.70
2019-05-22T12:41:44.363Z,98275.95
2019-05-22T12:43:53.713Z,98257.80
2019-05-22T12:46:01.427Z,98261.70
2019-05-22T12:48:09.312Z,98253.57
2019-05-22T12:50:19.720Z,98242.96
2019-05-22T12:52:27.235Z,98239.56
2019-05-22T12:54:46.106Z,98235.56
2019-05-22T12:56:44.781Z,98226.33
2019-05-22T12:58:53.094Z,98229.98
2019-05-22T13:01:01.261Z,98225.34
2019-05-22T13:03:09.661Z,98220.34
2019-05-22T13:05:18.736Z,98215.41
2019-05-22T13:07:26.841Z,98211.64
2019-05-22T13:09:34.173Z,98207.91
2019-05-22T13:11:41.546Z,98203.43
2019-05-22T13:13:48.769Z,98206.67
2019-05-22T13:15:56.514Z,98204.20
2019-05-22T13:18:13.006Z,98203.22
2019-05-22T13:20:40.977Z,98193.25
2019-05-22T13:22:37.138Z,98192.26
2019-05-22T13:24:45.185Z,98187.37
2019-05-22T13:26:54.522Z,98174.61
2019-05-22T13:29:03.783Z,98188.81
2019-05-22T13:31:12.057Z,98183.19
2019-05-22T13:33:22.913Z,98179.70
2019-05-22T13:35:31.341Z,98173.71
2019-05-22T13:37:40.268Z,98174.95
2019-05-22T13:39:48.135Z,98175.48
2019-05-22T13:41:56.808Z,98170.06
2019-05-22T13:44:06.430Z,98168.29
2019-05-22T13:46:15.049Z,98163.66
2019-05-22T13:48:22.676Z,98168.11
2019-05-22T13:50:31.073Z,98170.49
2019-05-22T13:52:40.185Z,98173.44
2019-05-22T13:54:48.158Z,98157.36
2019-05-22T13:56:55.748Z,98172.20
2019-05-22T13:59:04.946Z,98164.09
2019-05-22T14:01:13.072Z,98168.56
2019-05-22T14:03:21.485Z,98171.95
2019-05-22T14:05:32.028Z,98180.94
2019-05-22T14:07:39.131Z,98180.63
2019-05-22T14:09:46.708Z,98191.14
2019-05-22T14:11:55.680Z,98190.25
2019-05-22T14:14:04.860Z,98189.25
2019-05-22T14:16:12.228Z,98199.00
2019-05-22T14:18:20.259Z,98181.58
2019-05-22T14:20:28.690Z,98201.87
2019-05-22T14:22:35.962Z,98194.37
2019-05-22T14:24:43.308Z,98185.59
2019-05-22T14:26:52.132Z,98186.63
2019-05-22T14:28:59.792Z,98182.97
2019-05-22T14:31:07.493Z,98177.55
2019-05-22T14:33:15.223Z,98177.06
2019-05-22T14:35:24.134Z,98178.42
2019-05-22T14:37:32.101Z,98185.02
2019-05-22T14:39:40.717Z,98192.41
2019-05-22T14:41:48.000Z,98204.86
2019-05-22T14:43:55.711Z,98192.13
2019-05-22T14:46:03.822Z,98197.02
2019-05-22T14:48:12.124Z,98194.51
2019-05-22T14:50:19.541Z,98195.73
2019-05-22T14:52:26.899Z,98188.98
2019-05-22T14:54:34.986Z,98195.52
2019-05-22T14:56:43.284Z,98187.88
2019-05-22T14:58:51.022Z,98194.16
2019-05-22T15:00:58.865Z,98194.70
2019-05-22T15:03:07.104Z,98186.81
2019-05-22T15:05:15.148Z,98183.28
2019-05-22T15:07:23.518Z,98197.66
2019-05-22T15:09:30.851Z,98203.13
2019-05-22T15:11:38.296Z,98202.83
2019-05-22T15:13:45.630Z,98197.41
2019-05-22T15:15:53.039Z,98200.41
2019-05-22T15:18:00.358Z,98195.23
2019-05-22T15:20:07.949Z,98195.23
2019-05-22T15:22:16.201Z,98197.41
2019-05-22T15:24:23.475Z,98192.23
2019-05-22T15:26:31.271Z,98194.41
2019-05-22T15:28:41.143Z,98179.75
2019-05-22T15:30:48.934Z,98178.44
2019-05-22T15:32:56.196Z,98176.55
2019-05-22T15:35:04.303Z,98188.98
2019-05-22T15:37:14.183Z,98181.14
2019-05-22T15:39:24.204Z,98177.08
2019-05-22T15:41:31.908Z,98174.94
2019-05-22T15:43:39.720Z,98182.61
2019-05-22T15:45:48.564Z,98180.47
2019-05-22T15:47:59.007Z,98184.54
2019-05-22T15:50:08.579Z,98194.64
2019-05-22T15:52:17.393Z,98193.00
2019-05-22T15:54:25.620Z,98199.00
2019-05-22T15:56:35.853Z,98191.69
2019-05-22T15:58:49.408Z,98200.35
2019-05-22T16:00:59.320Z,98196.53
2019-05-22T16:03:12.609Z,98191.64
2019-05-22T16:05:22.754Z,98203.06
2019-05-22T16:07:30.168Z,98196.53
2019-05-22T16:09:38.374Z,98193.25
2019-05-22T16:11:46.121Z,98188.25
2019-05-22T16:13:54.824Z,98176.88
2019-05-22T16:16:03.376Z,98187.86
2019-05-22T16:18:12.629Z,98183.52
2019-05-22T16:20:23.695Z,98195.22
2019-05-22T16:22:31.058Z,98178.23
2019-05-22T16:24:39.930Z,98177.16
2019-05-22T16:26:47.391Z,98189.07
2019-05-22T16:28:56.037Z,98190.33
2019-05-22T16:31:05.411Z,98189.36
2019-05-22T16:33:13.503Z,98196.96
2019-05-22T16:35:21.337Z,98200.74
2019-05-22T16:37:28.650Z,98202.92
2019-05-22T16:39:37.565Z,98205.24
2019-05-22T16:41:46.797Z,98212.73
2019-05-22T16:43:55.762Z,98215.73
2019-05-22T16:46:03.298Z,98207.59
2019-05-22T16:48:27.839Z,98214.66
2019-05-22T16:50:22.320Z,98212.73
2019-05-22T16:52:30.637Z,98210.84
2019-05-22T16:54:38.999Z,98213.31
2019-05-22T16:56:46.757Z,98215.27
2019-05-22T16:58:54.923Z,98219.55
2019-05-22T17:01:02.050Z,98210.95
2019-05-22T17:03:11.662Z,98212.31
2019-05-22T17:05:20.090Z,98209.77
2019-05-22T17:07:28.173Z,98224.52
2019-05-22T17:09:36.789Z,98210.98
2019-05-22T17:11:44.660Z,98211.56
2019-05-22T17:13:53.413Z,98212.09
2019-05-22T17:16:01.463Z,98206.67
2019-05-22T17:18:11.611Z,98204.25
2019-05-22T17:20:24.354Z,98202.36
2019-05-22T17:22:31.667Z,98200.72
2019-05-22T17:24:39.118Z,98200.75
2019-05-22T17:26:46.697Z,98201.70
2019-05-22T17:28:54.330Z,98201.00
2019-05-22T17:31:02.758Z,98209.27
2019-05-22T17:33:11.406Z,98203.14
2019-05-22T17:35:21.446Z,98208.56
2019-05-22T17:37:30.378Z,98206.27
2019-05-22T17:39:39.971Z,98202.53
2019-05-22T17:41:48.295Z,98212.95
2019-05-22T17:43:57.110Z,98205.88
2019-05-22T17:46:07.298Z,98213.09
2019-05-22T17:48:15.722Z,98206.58
2019-05-22T17:50:27.162Z,98195.59
2019-05-22T17:52:34.648Z,98201.45
2019-05-22T17:54:43.339Z,98203.58
2019-05-22T17:56:51.584Z,98210.07
2019-05-22T17:58:59.192Z,98214.45
2019-05-22T18:01:07.881Z,98211.84
2019-05-22T18:03:16.111Z,98211.42
2019-05-22T18:05:27.742Z,98213.82
2019-05-22T18:07:36.237Z,98210.56
2019-05-22T18:09:44.285Z,98204.19
2019-05-22T18:11:52.257Z,98203.31
2019-05-22T18:14:06.585Z,98213.70
2019-05-22T18:16:14.662Z,98215.86
2019-05-22T18:18:24.142Z,98202.29
2019-05-22T18:20:42.227Z,98208.27
2019-05-22T18:22:40.637Z,98207.70
2019-05-22T18:24:48.252Z,98207.70
2019-05-22T18:26:55.832Z,98208.45
2019-05-22T18:29:03.471Z,98216.33
2019-05-22T18:31:10.859Z,98208.69
2019-05-22T18:33:18.661Z,98200.76
2019-05-22T18:35:27.661Z,98198.00
2019-05-22T18:37:36.720Z,98199.91
2019-05-22T18:39:45.297Z,98185.13
2019-05-22T18:41:53.931Z,98179.71
2019-05-22T18:44:01.796Z,98184.02
2019-05-22T18:46:09.625Z,98177.20
2019-05-22T18:48:17.216Z,98187.00
2019-05-22T18:50:24.876Z,98173.39
2019-05-22T18:52:40.886Z,98183.48
2019-05-22T18:54:42.682Z,98173.16
2019-05-22T18:56:49.792Z,98167.18
2019-05-22T18:58:57.762Z,98163.62
2019-05-22T19:01:05.531Z,98166.82
2019-05-22T19:03:13.133Z,98178.33
2019-05-22T19:05:23.056Z,98166.09
2019-05-22T19:07:30.645Z,98154.39
2019-05-22T19:09:39.255Z,98154.15
2019-05-22T19:11:46.783Z,98147.05
2019-05-22T19:13:53.915Z,98151.41
2019-05-22T19:16:01.794Z,98153.87
2019-05-22T19:18:09.613Z,98141.34
2019-05-22T19:20:17.425Z,98139.44
2019-05-22T19:22:25.182Z,98139.74
2019-05-22T19:24:34.268Z,98131.28
2019-05-22T19:26:42.515Z,98131.84
2019-05-22T19:28:50.794Z,98142.44
2019-05-22T19:30:57.998Z,98142.70
2019-05-22T19:33:07.125Z,98141.64
2019-05-22T19:35:15.440Z,98126.95
2019-05-22T19:37:22.907Z,98141.36
2019-05-22T19:39:30.825Z,98143.81
2019-05-22T19:41:38.073Z,98146.25
2019-05-22T19:43:46.043Z,98145.72
2019-05-22T19:45:53.389Z,98137.30
2019-05-22T19:48:01.666Z,98135.69
2019-05-22T19:50:22.642Z,98144.63
2019-05-22T19:52:22.462Z,98146.87
2019-05-22T19:54:29.129Z,98153.41
2019-05-22T19:56:36.363Z,98156.92
2019-05-22T19:58:45.293Z,98151.50
2019-05-22T20:00:52.650Z,98141.98
2019-05-22T20:03:00.925Z,98140.66
2019-05-22T20:05:08.849Z,98140.66
2019-05-22T20:07:18.700Z,98150.78
2019-05-22T20:09:26.299Z,98148.06
2019-05-22T20:11:33.612Z,98145.03
2019-05-22T20:13:41.359Z,98142.03
2019-05-22T20:15:48.697Z,98146.93
2019-05-22T20:17:56.575Z,98148.87
2019-05-22T20:20:04.330Z,98140.95
2019-05-22T20:22:13.583Z,98136.39
2019-05-22T20:24:21.451Z,98136.11
2019-05-22T20:26:28.594Z,98136.66
2019-05-22T20:28:35.840Z,98129.88
2019-05-22T20:30:43.514Z,98130.42
2019-05-22T20:32:51.553Z,98136.13
2019-05-22T20:34:59.147Z,98131.75
2019-05-22T20:37:07.864Z,98126.33
2019-05-22T20:39:19.094Z,98124.17
2019-05-22T20:41:26.908Z,98126.35
2019-05-22T20:43:35.384Z,98114.64
2019-05-22T20:45:46.134Z,98120.89
2019-05-22T20:48:08.488Z,98124.47
2019-05-22T20:50:16.874Z,98134.80
2019-05-22T20:52:26.094Z,98130.50
2019-05-22T20:54:35.059Z,98118.80
2019-05-22T20:56:44.389Z,98133.42
2019-05-22T20:58:52.589Z,98127.17
2019-05-22T21:01:01.303Z,98128.32
2019-05-22T21:03:10.350Z,98127.98
2019-05-22T21:05:20.388Z,98138.66
2019-05-22T21:07:36.574Z,98133.23
2019-05-22T21:09:45.721Z,98137.31
2019-05-22T21:11:53.703Z,98129.14
2019-05-22T21:14:01.613Z,98131.80
2019-05-22T21:16:10.008Z,98120.44
2019-05-22T21:18:27.271Z,98115.56
2019-05-22T21:20:35.233Z,98117.20
2019-05-22T21:22:43.195Z,98120.45
2019-05-22T21:24:51.420Z,98123.16
2019-05-22T21:26:59.717Z,98124.00
2019-05-22T21:29:07.931Z,98126.70
2019-05-22T21:31:17.206Z,98128.59
2019-05-22T21:33:25.918Z,98124.81
2019-05-22T21:35:34.127Z,98126.19
2019-05-22T21:37:41.707Z,98131.27
2019-05-22T21:42:49.585Z,98122.57
2019-05-22T21:45:03.723Z,98121.52
2019-05-22T21:47:12.021Z,98131.53
2019-05-22T21:49:19.871Z,98132.52
2019-05-22T21:51:27.725Z,98150.98
2019-05-22T21:53:35.605Z,98127.90
2019-05-22T21:55:45.962Z,98137.47
2019-05-22T21:57:53.535Z,98136.13
2019-05-22T22:00:18.227Z,98158.82
2019-05-22T22:02:40.641Z,98134.58
2019-05-22T22:04:48.645Z,98126.37
2019-05-22T22:06:57.161Z,98132.39
2019-05-22T22:09:11.869Z,98138.11
2019-05-22T22:11:22.474Z,98130.73
2019-05-22T22:13:30.429Z,98129.41
2019-05-22T22:15:43.417Z,98154.20
2019-05-22T22:17:51.627Z,98130.53
2019-05-22T22:19:59.899Z,98141.37
2019-05-22T22:22:15.561Z,98147.84
2019-05-22T22:24:23.937Z,98144.32
2019-05-22T22:26:31.495Z,98160.59
2019-05-22T22:28:39.061Z,98150.45
2019-05-22T22:30:55.265Z,98148.45
2019-05-22T22:33:05.741Z,98147.67
2019-05-22T22:35:17.045Z,98142.21
2019-05-22T22:37:25.323Z,98146.36
2019-05-22T22:39:33.686Z,98149.37
2019-05-22T22:41:44.401Z,98155.39
2019-05-22T22:43:53.498Z,98149.73
2019-05-22T22:46:13.658Z,98153.64
2019-05-22T22:48:24.343Z,98168.62
2019-05-22T22:50:32.075Z,98150.48
2019-05-22T22:52:42.579Z,98150.45
2019-05-22T22:54:50.512Z,98158.63
2019-05-22T22:56:58.828Z,98157.03
2019-05-22T22:59:08.546Z,98157.23
2019-05-22T23:01:24.292Z,98160.72
2019-05-22T23:03:36.274Z,98158.77
2019-05-22T23:05:50.878Z,98156.14
2019-05-22T23:08:13.449Z,98167.44
2019-05-22T23:10:23.760Z,98158.28
2019-05-22T23:12:31.768Z,98175.73
2019-05-22T23:14:41.378Z,98178.98
2019-05-22T23:16:49.183Z,98176.02
2019-05-22T23:19:36.365Z,98168.21
2019-05-22T23:21:40.803Z,98179.16
2019-05-22T23:24:01.256Z,98187.37
2019-05-22T23:26:09.492Z,98188.00
2019-05-22T23:28:33.692Z,98180.95
2019-05-22T23:30:28.325Z,98179.91
2019-05-22T23:32:36.870Z,98185.89
2019-05-22T23:34:45.536Z,98178.69
2019-05-22T23:36:53.104Z,98176.61
2019-05-22T23:39:05.580Z,98172.25
2019-05-22T23:41:14.350Z,98170.02
2019-05-22T23:43:25.201Z,98172.09
2019-05-22T23:45:34.420Z,98162.55
2019-05-22T23:48:06.392Z,98166.86
2019-05-22T23:50:16.026Z,98164.41
2019-05-22T23:52:23.659Z,98159.91
2019-05-22T23:54:31.792Z,98131.31
2019-05-22T23:56:40.531Z,98119.94
2019-05-22T23:58:52.745Z,98113.11
